• Join FlightAware (Why Join?)
  • Login
  • US Flag 
Rudolph Flight #1: Arrived! 
10:13PM EST


 

Airport Tracker/Info


-or-


 

Live Flight TrackerFlight Track Log ✈ LOT643 ✈ 21-Jul-2014 ✈ EPWA / WAW - LROP / OTP

Flight Track Log - Related Links

Times and Time Zones

All times are in EDT time to prevent confusion due to time zone crossing. See the LOT643 flight status page for this flight to view local times or setup timezone preferences in your user account.

Time Position Orientation Groundspeed Altitude Reporting Facility
EDT Latitude Longitude Course Direction KTS MPH feet Rate Location/Type
05:09PM 51.5296 21.4683 154° Southeast  Level Estimated
05:10PM 51.4499 21.5299 154° Southeast  Level Estimated
05:11PM 51.3702 21.5914 154° Southeast  Level Estimated
05:12PM 51.2905 21.6526 154° Southeast  Level Estimated
05:13PM 51.2107 21.7136 154° Southeast  Level Estimated
05:14PM 51.1309 21.7744 154° Southeast  Level Estimated
05:15PM 51.0511 21.8350 154° Southeast  Level Estimated
05:16PM 50.9712 21.8954 155° Southeast  Level Estimated
05:17PM 50.8913 21.9555 155° Southeast  Level Estimated
05:18PM 50.8114 22.0155 155° Southeast  Level Estimated
05:19PM 50.7314 22.0753 155° Southeast  Level Estimated
05:20PM 50.6515 22.1348 155° Southeast  Level Estimated
05:21PM 50.5714 22.1942 155° Southeast  Level Estimated
05:22PM 50.4914 22.2534 155° Southeast  Level Estimated
05:23PM 50.4113 22.3123 155° Southeast  Level Estimated
05:24PM 50.3312 22.3711 155° Southeast  Level Estimated
05:25PM 50.2511 22.4297 155° Southeast  Level Estimated
05:26PM 50.1709 22.4880 155° Southeast  Level Estimated
05:27PM 50.0907 22.5462 155° Southeast  Level Estimated
05:28PM 50.0105 22.6042 155° Southeast  Level Estimated
05:29PM 49.9302 22.6619 155° Southeast  Level Estimated
05:30PM 49.8500 22.7195 155° Southeast  Level Estimated
05:31PM 49.7697 22.7769 155° Southeast  Level Estimated
05:32PM 49.6893 22.8342 155° Southeast  Level Estimated
05:33PM 49.6090 22.8912 155° Southeast  Level Estimated
05:34PM 49.5286 22.9480 155° Southeast  Level Estimated
05:35PM 49.4482 23.0047 155° Southeast  Level Estimated
05:36PM 49.3677 23.0611 155° Southeast  Level Estimated
05:37PM 49.2872 23.1174 155° Southeast  Level Estimated
05:38PM 49.2067 23.1735 156° South  Level Estimated
05:39PM 49.1262 23.2294 156° South  Level Estimated
05:40PM 49.0457 23.2851 156° South  Level Estimated
05:41PM 48.9651 23.3407 156° South  Level Estimated
05:42PM 48.8845 23.3960 156° South  Level Estimated
05:43PM 48.8038 23.4512 156° South  Level Estimated
05:44PM 48.7232 23.5062 156° South  Level Estimated
05:45PM 48.6425 23.5611 156° South  Level Estimated
05:46PM 48.5618 23.6157 156° South  Level Estimated
05:47PM 48.4810 23.6702 156° South  Level Estimated
05:48PM 48.4003 23.7245 156° South  Level Estimated
05:49PM 48.3195 23.7787 156° South  Level Estimated
05:50PM 48.2387 23.8327 156° South  Level Estimated
05:51PM 48.1578 23.8865 156° South  Level Estimated
05:52PM 48.0770 23.9401 156° South  Level Estimated
05:53PM 47.9961 23.9935 156° South  Level Estimated
05:54PM 47.9151 24.0469 156° South  Level Estimated
05:55PM 47.8342 24.1000 156° South  Level Estimated
05:56PM 47.7532 24.1529 156° South  Level Estimated
05:57PM 47.6722 24.2057 156° South  Level Estimated
05:58PM 47.5912 24.2584 156° South  Level Estimated
05:59PM 47.5102 24.3109 156° South  Level Estimated
06:00PM 47.4291 24.3632 156° South  Level Estimated
06:01PM 47.3480 24.4153 156° South  Level Estimated
06:02PM 47.2669 24.4673 156° South  Level Estimated
06:03PM 47.1858 24.5191 157° South  Level Estimated
06:04PM 47.1047 24.5708 157° South  Level Estimated
06:05PM 47.0235 24.6223 157° South  Level Estimated
06:06PM 46.9423 24.6737 157° South  Level Estimated
06:07PM 46.8611 24.7249 157° South  Level Estimated
06:08PM 46.7798 24.7759 157° South  Level Estimated
06:09PM 46.6985 24.8268 157° South  Level Estimated
06:10PM 46.6172 24.8776 157° South  Level Estimated
06:11PM 46.5359 24.9282 157° South  Level Estimated
06:12PM 46.4546 24.9786 157° South  Level Estimated
06:13PM 46.3732 25.0289 157° South  Level Estimated
06:14PM 46.2919 25.0790 157° South  Level Estimated
06:15PM 46.2105 25.1290 157° South  Level Estimated
06:16PM 46.1290 25.1789 157° South  Level Estimated
06:17PM 46.0476 25.2286 157° South  Level Estimated
06:18PM 45.9661 25.2781 157° South  Level Estimated
06:19PM 45.8846 25.3275 157° South  Level Estimated
06:20PM 45.8031 25.3768 157° South  Level Estimated
06:21PM 45.7216 25.4259 157° South  Level Estimated
06:22PM 45.6400 25.4749 157° South  Level Estimated
06:23PM 45.5585 25.5237 157° South  Level Estimated
06:24PM 45.4769 25.5724 157° South  Level Estimated
06:25PM 45.3953 25.6209 157° South  Level Estimated
06:26PM 45.3136 25.6693 157° South  Level Estimated
06:27PM 45.2320 25.7176 157° South  Level Estimated
06:28PM 45.1503 25.7657 157° South  Level Estimated
06:29PM 45.0686 25.8137 157° South  Level Estimated
06:30PM 44.9869 25.8616 157° South  Level Estimated
06:31PM 44.9052 25.9093 158° South  Level Estimated
06:32PM 44.8234 25.9569 158° South  Level Estimated
06:33PM 44.7416 26.0043 158° South  Level Estimated
06:34PM 44.6598 26.0516 158° South  Level Estimated
06:35PM 44.5780 26.0988 158° South  Level Estimated